K&a Sp — 3FVZ3 — position and weather

sailwx.info

Track history (hours):
 
Tides and Currents Weather Stations Pressure Air Temp Water Temp Dewpoint Dewpoint Depression Visibility Wind Speed Wind Dir Waves Ship Positions

K&a Sp

Last reported at 2015-Aug-23 15:15 UTC. Time now 2015-Sep-05 14:19 UTC.
Position N 34°02' E 130°49'.
Warning: this ship's position is 12 days out of date.

Length 177 m; draft 7 m.

Type: Cargo ship. MMSI: 354085000.

Date/timePositionNaut miles runAvg speedWind from/ knotsBaromVisibWave heightAir tempDewpointWater temp
2015-Aug-23 15:15N 34°02' E 130°49'37 7.6
2015-Aug-23 10:24N 34°01' E 130°04'  
2015-Aug-20 09:08N 37°39' E 122°50'913.9
2015-Aug-20 08:30N 37°43' E 122°40'1313.3
2015-Aug-20 07:33N 37°50' E 122°27'1813.2
2015-Aug-20 06:12N 37°60' E 122°07'  
2015-Aug-14 17:13N 39°23' E 120°40'1111.1
2015-Aug-14 16:11N 39°11' E 120°43'811.8
2015-Aug-14 15:32N 39°04' E 120°45'9110.7
2015-Aug-14 07:06N 38°02' E 122°10'1011.9
2015-Aug-14 06:16N 37°58' E 122°21'811.5
2015-Aug-14 05:33N 37°52' E 122°29'1111.5
2015-Aug-14 04:33N 37°47' E 122°41'1311.3
2015-Aug-14 03:25N 37°40' E 122°55'2211.6
2015-Aug-14 01:30N 37°29' E 123°20'1211.3
2015-Aug-14 00:24N 37°19' E 123°28'1112.6
2015-Aug-13 23:32N 37°08' E 123°31'1313.0
2015-Aug-13 22:33N 36°55' E 123°33'1413.8
2015-Aug-13 21:32N 36°41' E 123°37'1414.0
2015-Aug-13 20:32N 36°28' E 123°40'4012.7
2015-Aug-13 17:25N 35°49' E 123°48'910.7
2015-Aug-13 16:33N 35°40' E 123°51'  
Track history (hours):
 
Tides and Currents Weather Stations Pressure Air Temp Water Temp Dewpoint Dewpoint Depression Visibility Wind Speed Wind Dir Waves Ship Positions

K&a Sp

Last reported at 2015-Aug-23 15:15 UTC. Time now 2015-Sep-05 14:19 UTC.
Position N 34°02' E 130°49'.
Warning: this ship's position is 12 days out of date.

Length 177 m; draft 7 m.

Type: Cargo ship. MMSI: 354085000.

Date/timePositionNaut miles runAvg speedWind from/ knotsBaromVisibWave heightAir tempDewpointWater temp
2015-Aug-23 15:15N 34°02' E 130°49'37 7.6
2015-Aug-23 10:24N 34°01' E 130°04'  
2015-Aug-20 09:08N 37°39' E 122°50'913.9
2015-Aug-20 08:30N 37°43' E 122°40'1313.3
2015-Aug-20 07:33N 37°50' E 122°27'1813.2
2015-Aug-20 06:12N 37°60' E 122°07'  
2015-Aug-14 17:13N 39°23' E 120°40'1111.1
2015-Aug-14 16:11N 39°11' E 120°43'811.8
2015-Aug-14 15:32N 39°04' E 120°45'9110.7
2015-Aug-14 07:06N 38°02' E 122°10'1011.9
2015-Aug-14 06:16N 37°58' E 122°21'811.5
2015-Aug-14 05:33N 37°52' E 122°29'1111.5
2015-Aug-14 04:33N 37°47' E 122°41'1311.3
2015-Aug-14 03:25N 37°40' E 122°55'2211.6
2015-Aug-14 01:30N 37°29' E 123°20'1211.3
2015-Aug-14 00:24N 37°19' E 123°28'1112.6
2015-Aug-13 23:32N 37°08' E 123°31'1313.0
2015-Aug-13 22:33N 36°55' E 123°33'1413.8
2015-Aug-13 21:32N 36°41' E 123°37'1414.0
2015-Aug-13 20:32N 36°28' E 123°40'4012.7
2015-Aug-13 17:25N 35°49' E 123°48'910.7
2015-Aug-13 16:33N 35°40' E 123°51'  

Dump ship's entire track history